createdAt,value
2022-07-30T00:01:15.220Z,3.00
2022-07-30T00:03:41.822Z,4.72
2022-07-30T00:06:08.432Z,4.15
2022-07-30T00:08:37.043Z,5.05
2022-07-30T00:11:03.745Z,3.25
2022-07-30T00:13:30.350Z,3.42
2022-07-30T00:15:56.939Z,3.90
2022-07-30T00:18:23.415Z,4.68
2022-07-30T00:20:49.865Z,3.05
2022-07-30T00:23:18.073Z,3.33
2022-07-30T00:25:44.561Z,3.40
2022-07-30T00:28:11.051Z,3.70
2022-07-30T00:30:38.810Z,4.70
2022-07-30T00:33:05.394Z,2.80
2022-07-30T00:35:35.130Z,3.10
2022-07-30T00:38:01.675Z,6.30
2022-07-30T00:40:28.966Z,2.85
2022-07-30T00:42:55.651Z,3.25
2022-07-30T00:45:22.363Z,2.50
2022-07-30T00:47:49.289Z,2.35
2022-07-30T00:50:16.342Z,8.57
2022-07-30T00:52:43.639Z,4.28
2022-07-30T00:55:13.347Z,3.00
2022-07-30T00:57:40.291Z,2.30
2022-07-30T01:00:09.931Z,4.88
2022-07-30T01:02:36.619Z,3.92
2022-07-30T01:05:04.080Z,2.80
2022-07-30T01:07:30.635Z,2.55
2022-07-30T01:09:57.121Z,4.00
2022-07-30T01:12:25.958Z,6.47
2022-07-30T01:14:53.046Z,4.68
2022-07-30T01:17:20.233Z,2.65
2022-07-30T01:19:56.006Z,1.67
2022-07-30T01:22:30.901Z,4.63
2022-07-30T01:25:09.786Z,2.75
2022-07-30T01:27:58.120Z,7.95
2022-07-30T01:30:28.283Z,3.08
2022-07-30T01:32:56.328Z,1.95
2022-07-30T01:35:25.835Z,2.83
2022-07-30T01:37:54.431Z,4.40
2022-07-30T01:40:23.428Z,8.60
2022-07-30T01:42:57.143Z,3.05
2022-07-30T01:45:25.515Z,3.28
2022-07-30T01:47:54.556Z,4.53
2022-07-30T01:50:22.653Z,3.10
2022-07-30T01:52:52.830Z,4.60
2022-07-30T01:55:26.848Z,1.65
2022-07-30T01:57:55.096Z,5.63
2022-07-30T02:00:24.577Z,4.03
2022-07-30T02:02:51.133Z,4.40
2022-07-30T02:05:17.920Z,4.35
2022-07-30T02:07:47.082Z,6.03
2022-07-30T02:10:19.153Z,3.80
2022-07-30T02:12:52.235Z,5.65
2022-07-30T02:15:37.462Z,5.20
2022-07-30T02:18:16.850Z,4.88
2022-07-30T02:20:49.447Z,6.82
2022-07-30T02:23:18.239Z,3.78
2022-07-30T02:25:49.043Z,6.97
2022-07-30T02:28:18.522Z,4.93
2022-07-30T02:30:51.279Z,9.00
2022-07-30T02:33:23.716Z,3.30
2022-07-30T02:35:54.699Z,6.00
2022-07-30T02:38:22.021Z,5.07
2022-07-30T02:40:50.130Z,4.50
2022-07-30T02:43:18.281Z,5.05
2022-07-30T02:45:48.021Z,3.38
2022-07-30T02:48:35.109Z,5.30
2022-07-30T02:51:04.675Z,3.08
2022-07-30T02:53:32.828Z,4.18
2022-07-30T02:56:01.128Z,6.10
2022-07-30T02:58:29.226Z,4.07
2022-07-30T03:00:57.289Z,7.10
2022-07-30T03:03:29.097Z,4.70
2022-07-30T03:05:57.424Z,5.60
2022-07-30T03:08:26.227Z,4.25
2022-07-30T03:10:55.938Z,4.43
2022-07-30T03:13:24.688Z,4.78
2022-07-30T03:15:53.797Z,6.30
2022-07-30T03:18:22.079Z,4.88
2022-07-30T03:20:51.691Z,5.60
2022-07-30T03:23:19.787Z,4.20
2022-07-30T03:25:54.492Z,6.80
2022-07-30T03:28:23.483Z,8.23
2022-07-30T03:30:51.765Z,5.00
2022-07-30T03:33:19.958Z,5.72
2022-07-30T03:35:48.869Z,8.88
2022-07-30T03:38:15.674Z,5.72
2022-07-30T03:40:44.129Z,7.70
2022-07-30T03:43:33.662Z,8.77
2022-07-30T03:46:01.000Z,8.10
2022-07-30T03:48:31.269Z,8.57
2022-07-30T03:50:58.955Z,5.97
2022-07-30T03:53:27.634Z,11.20
2022-07-30T03:56:14.236Z,7.60
2022-07-30T03:58:52.874Z,5.40
2022-07-30T04:01:19.548Z,7.38
2022-07-30T04:03:46.443Z,5.53
2022-07-30T04:06:13.099Z,6.50
2022-07-30T04:08:39.629Z,5.75
2022-07-30T04:11:06.277Z,7.78
2022-07-30T04:13:58.983Z,9.95
2022-07-30T04:16:53.241Z,5.35
2022-07-30T04:19:28.304Z,8.63
2022-07-30T04:21:59.944Z,8.48
2022-07-30T04:24:28.404Z,10.20
2022-07-30T04:26:59.542Z,8.27
2022-07-30T04:29:27.159Z,8.20
2022-07-30T04:31:55.039Z,9.15
2022-07-30T04:34:48.197Z,9.68
2022-07-30T04:37:17.517Z,11.38
2022-07-30T04:39:44.657Z,9.07
2022-07-30T04:42:11.601Z,13.25
2022-07-30T04:44:38.752Z,11.85
2022-07-30T04:47:24.909Z,10.02
2022-07-30T04:50:12.985Z,7.57
2022-07-30T04:52:41.745Z,9.68
2022-07-30T04:55:11.065Z,6.22
2022-07-30T04:57:40.270Z,9.88
2022-07-30T05:00:07.896Z,12.57
2022-07-30T05:02:40.027Z,7.50
2022-07-30T05:05:08.608Z,7.95
2022-07-30T05:07:37.792Z,10.80
2022-07-30T05:10:06.566Z,7.35
2022-07-30T05:12:35.052Z,9.07
2022-07-30T05:15:01.569Z,8.65
2022-07-30T05:17:28.119Z,7.38
2022-07-30T05:19:54.626Z,6.97
2022-07-30T05:22:21.488Z,9.55
2022-07-30T05:24:48.292Z,7.20
2022-07-30T05:27:14.842Z,7.57
2022-07-30T05:29:41.398Z,7.20
2022-07-30T05:32:12.879Z,6.07
2022-07-30T05:34:39.576Z,5.35
2022-07-30T05:37:06.732Z,7.22
2022-07-30T05:39:36.713Z,7.55
2022-07-30T05:42:41.934Z,5.80
2022-07-30T05:45:09.460Z,6.93
2022-07-30T05:47:36.528Z,9.30
2022-07-30T05:50:05.303Z,6.43
2022-07-30T05:52:32.671Z,11.63
2022-07-30T05:55:07.609Z,9.57
2022-07-30T05:57:50.780Z,5.40
2022-07-30T06:00:17.790Z,7.07
2022-07-30T06:02:44.556Z,5.78
2022-07-30T06:05:26.077Z,6.45
2022-07-30T06:07:55.597Z,6.68
2022-07-30T06:10:23.113Z,5.65
2022-07-30T06:12:49.948Z,7.50
2022-07-30T06:15:25.651Z,6.93
2022-07-30T06:18:01.575Z,8.77
2022-07-30T06:21:01.400Z,6.53
2022-07-30T06:23:46.920Z,4.68
2022-07-30T06:26:21.819Z,7.40
2022-07-30T06:28:48.309Z,6.18
2022-07-30T06:31:19.981Z,6.43
2022-07-30T06:33:46.620Z,5.32
2022-07-30T06:36:14.466Z,6.30
2022-07-30T06:39:02.506Z,6.88
2022-07-30T06:42:04.527Z,7.88
2022-07-30T06:44:51.287Z,7.05
2022-07-30T06:47:29.155Z,6.18
2022-07-30T06:49:57.659Z,8.25
2022-07-30T06:52:25.889Z,6.05
2022-07-30T06:54:53.282Z,6.68
2022-07-30T06:57:26.437Z,7.25
2022-07-30T06:59:56.454Z,6.97
2022-07-30T07:02:42.584Z,6.53
2022-07-30T07:05:11.838Z,8.63
2022-07-30T07:07:43.299Z,6.82
2022-07-30T07:10:17.695Z,8.27
2022-07-30T07:12:52.232Z,8.80
2022-07-30T07:15:21.855Z,6.20
2022-07-30T07:17:49.286Z,4.72
2022-07-30T07:20:26.917Z,7.57
2022-07-30T07:23:01.666Z,6.45
2022-07-30T07:25:33.352Z,5.68
2022-07-30T07:28:11.809Z,8.90
2022-07-30T07:30:44.123Z,5.90
2022-07-30T07:33:12.244Z,6.20
2022-07-30T07:35:49.054Z,6.68
2022-07-30T07:38:20.832Z,9.68
2022-07-30T07:40:48.914Z,4.88
2022-07-30T07:43:15.982Z,6.75
2022-07-30T07:45:43.232Z,5.05
2022-07-30T07:48:10.031Z,5.35
2022-07-30T07:50:48.517Z,4.68
2022-07-30T07:53:22.026Z,5.40
2022-07-30T07:55:49.003Z,6.88
2022-07-30T07:58:17.543Z,3.80
2022-07-30T08:00:54.896Z,7.25
2022-07-30T08:03:25.711Z,5.43
2022-07-30T08:06:02.681Z,8.38
2022-07-30T08:09:07.768Z,5.65
2022-07-30T08:11:53.086Z,4.75
2022-07-30T08:14:38.035Z,5.53
2022-07-30T08:17:30.476Z,5.20
2022-07-30T08:20:18.606Z,4.97
2022-07-30T08:22:46.185Z,5.28
2022-07-30T08:25:24.159Z,6.28
2022-07-30T08:27:51.581Z,4.25
2022-07-30T08:30:20.233Z,4.53
2022-07-30T08:32:46.852Z,5.72
2022-07-30T08:35:13.418Z,8.40
2022-07-30T08:37:41.109Z,4.68
2022-07-30T08:40:09.083Z,5.95
2022-07-30T08:42:42.767Z,4.30
2022-07-30T08:45:12.324Z,4.50
2022-07-30T08:47:41.244Z,4.00
2022-07-30T08:50:11.584Z,3.28
2022-07-30T08:53:03.823Z,3.22
2022-07-30T08:55:31.493Z,3.28
2022-07-30T08:57:58.729Z,3.72
2022-07-30T09:00:26.242Z,3.08
2022-07-30T09:02:52.819Z,3.28
2022-07-30T09:05:19.362Z,3.42
2022-07-30T09:07:46.168Z,3.55
2022-07-30T09:10:21.170Z,2.17
2022-07-30T09:12:47.748Z,2.97
2022-07-30T09:15:20.188Z,2.13
2022-07-30T09:17:57.124Z,2.25
2022-07-30T09:20:30.281Z,3.00
2022-07-30T09:23:03.793Z,2.70
2022-07-30T09:25:49.787Z,2.70
2022-07-30T09:28:34.981Z,2.25
2022-07-30T09:31:13.881Z,2.22
2022-07-30T09:33:59.569Z,3.50
2022-07-30T09:37:04.569Z,4.53
2022-07-30T09:39:59.543Z,2.85
2022-07-30T09:43:25.945Z,1.98
2022-07-30T09:46:01.570Z,1.70
2022-07-30T09:48:28.547Z,2.17
2022-07-30T09:50:57.365Z,2.70
2022-07-30T09:53:24.745Z,2.72
2022-07-30T09:55:51.326Z,3.38
2022-07-30T09:58:27.080Z,1.85
2022-07-30T10:01:01.555Z,2.53
2022-07-30T10:03:43.010Z,1.60
2022-07-30T10:06:38.138Z,3.05
2022-07-30T10:09:37.380Z,1.38
2022-07-30T10:12:10.527Z,1.60
2022-07-30T10:14:44.938Z,1.85
2022-07-30T10:17:15.104Z,2.17
2022-07-30T10:19:52.984Z,2.50
2022-07-30T10:22:56.658Z,2.78
2022-07-30T10:25:27.987Z,2.45
2022-07-30T10:28:38.439Z,1.50
2022-07-30T10:31:47.396Z,2.13
2022-07-30T10:33:52.957Z,2.28
2022-07-30T10:36:21.784Z,0.98
2022-07-30T10:38:52.908Z,2.85
2022-07-30T10:42:02.361Z,1.77
2022-07-30T10:44:51.702Z,5.10
2022-07-30T10:47:19.295Z,2.30
2022-07-30T10:50:22.328Z,1.90
2022-07-30T10:52:54.759Z,1.65
2022-07-30T10:55:37.332Z,2.13
2022-07-30T10:58:14.320Z,3.25
2022-07-30T11:00:54.456Z,1.50
2022-07-30T11:03:23.579Z,3.08
2022-07-30T11:06:16.318Z,1.73
2022-07-30T11:08:45.288Z,1.27
2022-07-30T11:11:20.884Z,1.30
2022-07-30T11:14:07.660Z,2.28
2022-07-30T11:16:34.789Z,1.90
2022-07-30T11:22:25.370Z,2.33
2022-07-30T11:24:52.839Z,2.38
2022-07-30T11:27:50.286Z,3.80
2022-07-30T11:30:23.606Z,2.17
2022-07-30T11:33:03.140Z,1.33
2022-07-30T11:35:34.906Z,1.48
2022-07-30T11:38:07.318Z,2.10
2022-07-30T11:40:42.462Z,1.85
2022-07-30T11:43:34.898Z,2.25
2022-07-30T11:46:16.485Z,1.55
2022-07-30T11:48:55.743Z,1.65
2022-07-30T11:51:22.698Z,2.80
2022-07-30T11:54:02.209Z,1.45
2022-07-30T11:56:28.950Z,1.95
2022-07-30T11:59:03.731Z,2.33
2022-07-30T12:01:30.999Z,2.10
2022-07-30T12:03:57.795Z,1.77
2022-07-30T12:06:24.316Z,1.70
2022-07-30T12:08:58.298Z,2.58
2022-07-30T12:11:32.049Z,1.50
2022-07-30T12:14:01.934Z,1.48
2022-07-30T12:16:31.214Z,2.00
2022-07-30T12:19:05.845Z,2.15
2022-07-30T12:21:33.191Z,1.55
2022-07-30T12:24:04.014Z,2.97
2022-07-30T12:26:34.430Z,1.88
2022-07-30T12:29:05.008Z,2.05
2022-07-30T12:31:33.678Z,2.92
2022-07-30T12:34:00.911Z,1.75
2022-07-30T12:36:32.772Z,1.75
2022-07-30T12:39:01.066Z,1.80
2022-07-30T12:41:48.434Z,1.75
2022-07-30T12:44:40.822Z,2.45
2022-07-30T12:47:26.004Z,2.05
2022-07-30T12:49:54.290Z,1.65
2022-07-30T12:52:28.214Z,3.67
2022-07-30T12:55:10.835Z,1.98
2022-07-30T12:58:00.762Z,1.50
2022-07-30T13:00:43.863Z,1.75
2022-07-30T13:03:40.640Z,5.05
2022-07-30T13:06:14.301Z,2.58
2022-07-30T13:08:55.339Z,1.52
2022-07-30T13:11:24.807Z,2.55
2022-07-30T13:13:52.399Z,3.38
2022-07-30T13:16:20.173Z,2.50
2022-07-30T13:18:47.524Z,2.03
2022-07-30T13:21:14.178Z,3.65
2022-07-30T13:23:41.773Z,1.80
2022-07-30T13:26:09.639Z,2.20
2022-07-30T13:28:36.444Z,1.75
2022-07-30T13:31:03.772Z,3.42
2022-07-30T13:33:30.682Z,2.47
2022-07-30T13:35:57.243Z,2.95
2022-07-30T13:38:23.851Z,4.60
2022-07-30T13:40:51.099Z,2.38
2022-07-30T13:43:18.110Z,2.58
2022-07-30T13:45:44.872Z,3.30
2022-07-30T13:48:11.608Z,2.53
2022-07-30T13:50:38.324Z,1.80
2022-07-30T13:53:05.645Z,2.15
2022-07-30T13:55:32.969Z,3.15
2022-07-30T13:57:59.874Z,1.92
2022-07-30T14:00:32.262Z,4.78
2022-07-30T14:03:00.698Z,3.60
2022-07-30T14:05:27.914Z,1.88
2022-07-30T14:07:54.741Z,2.50
2022-07-30T14:10:22.779Z,3.35
2022-07-30T14:12:55.023Z,2.97
2022-07-30T14:15:22.751Z,3.30
2022-07-30T14:17:56.105Z,3.65
2022-07-30T14:20:23.730Z,4.78
2022-07-30T14:22:50.730Z,2.00
2022-07-30T14:25:17.614Z,2.92
2022-07-30T14:27:44.095Z,2.97
2022-07-30T14:30:15.262Z,2.83
2022-07-30T14:32:41.756Z,4.30
2022-07-30T14:35:09.371Z,3.58
2022-07-30T14:37:38.026Z,3.47
2022-07-30T14:40:13.374Z,3.38
2022-07-30T14:42:40.526Z,3.20
2022-07-30T14:45:09.054Z,2.70
2022-07-30T14:47:36.293Z,3.80
2022-07-30T14:50:03.578Z,3.08
2022-07-30T14:52:30.914Z,3.20
2022-07-30T14:54:57.395Z,2.90
2022-07-30T14:57:24.489Z,3.80
2022-07-30T14:59:50.986Z,3.55
2022-07-30T15:02:17.882Z,4.10
2022-07-30T15:04:44.369Z,3.17
2022-07-30T15:07:13.006Z,3.20
2022-07-30T15:09:39.578Z,3.00
2022-07-30T15:12:09.982Z,2.55
2022-07-30T15:14:40.946Z,5.30
2022-07-30T15:17:07.934Z,4.78
2022-07-30T15:19:34.556Z,3.63
2022-07-30T15:22:02.495Z,3.70
2022-07-30T15:24:29.174Z,3.28
2022-07-30T15:26:56.404Z,4.18
2022-07-30T15:29:24.176Z,3.45
2022-07-30T15:31:51.401Z,4.80
2022-07-30T15:34:17.987Z,3.53
2022-07-30T15:36:44.492Z,4.30
2022-07-30T15:39:11.186Z,3.92
2022-07-30T15:41:37.799Z,2.70
2022-07-30T15:44:05.408Z,3.10
2022-07-30T15:46:31.956Z,3.90
2022-07-30T15:48:58.953Z,4.75
2022-07-30T15:51:25.465Z,4.22
2022-07-30T15:53:51.965Z,3.85
2022-07-30T15:56:18.680Z,3.45
2022-07-30T15:58:45.185Z,3.35
2022-07-30T16:01:11.828Z,3.65
2022-07-30T16:03:38.642Z,3.10
2022-07-30T16:06:07.903Z,2.65
2022-07-30T16:08:34.367Z,2.75
2022-07-30T16:11:03.783Z,2.33
2022-07-30T16:13:31.703Z,2.65
2022-07-30T16:15:58.405Z,4.05
2022-07-30T16:18:24.875Z,11.82
2022-07-30T16:20:51.515Z,15.93
2022-07-30T16:23:21.336Z,6.28
2022-07-30T16:25:48.410Z,6.28
2022-07-30T16:28:14.929Z,2.70
2022-07-30T16:30:50.692Z,2.95
2022-07-30T16:33:19.189Z,3.03
2022-07-30T16:35:49.323Z,1.75
2022-07-30T16:38:18.605Z,4.60
2022-07-30T16:40:45.516Z,2.72
2022-07-30T16:43:12.371Z,2.95
2022-07-30T16:45:39.477Z,2.40
2022-07-30T16:48:06.595Z,1.88
2022-07-30T16:50:33.271Z,2.05
2022-07-30T16:53:00.444Z,1.92
2022-07-30T16:55:27.153Z,2.33
2022-07-30T16:57:53.689Z,2.25
2022-07-30T17:00:20.210Z,2.33
2022-07-30T17:02:46.710Z,2.20
2022-07-30T17:05:13.925Z,4.13
2022-07-30T17:07:40.684Z,3.53
2022-07-30T17:10:11.048Z,2.20
2022-07-30T17:12:40.739Z,5.85
2022-07-30T17:15:07.919Z,3.40
2022-07-30T17:17:34.528Z,2.83
2022-07-30T17:20:02.950Z,2.95
2022-07-30T17:22:29.953Z,8.68
2022-07-30T17:24:56.449Z,7.43
2022-07-30T17:27:22.941Z,9.18
2022-07-30T17:29:50.378Z,4.97
2022-07-30T17:32:19.071Z,3.60
2022-07-30T17:34:46.180Z,5.35
2022-07-30T17:37:12.650Z,5.60
2022-07-30T17:40:26.912Z,4.85
2022-07-30T17:42:26.331Z,7.07
2022-07-30T17:44:52.866Z,6.43
2022-07-30T17:47:19.370Z,4.68
2022-07-30T17:49:46.260Z,5.47
2022-07-30T17:52:13.050Z,5.72
2022-07-30T17:54:39.792Z,6.93
2022-07-30T17:57:06.377Z,5.22
2022-07-30T17:59:32.947Z,4.13
2022-07-30T18:01:59.938Z,5.85
2022-07-30T18:04:27.337Z,7.82
2022-07-30T18:06:53.915Z,5.88
2022-07-30T18:09:20.462Z,7.50
2022-07-30T18:11:47.009Z,5.35
2022-07-30T18:14:13.541Z,5.20
2022-07-30T18:16:40.193Z,4.55
2022-07-30T18:19:06.795Z,7.63
2022-07-30T18:21:35.155Z,4.53
2022-07-30T18:24:05.456Z,7.68
2022-07-30T18:26:36.591Z,6.45
2022-07-30T18:29:03.597Z,4.93
2022-07-30T18:31:30.084Z,4.85
2022-07-30T18:33:56.691Z,6.35
2022-07-30T18:36:23.354Z,4.18
2022-07-30T18:38:49.886Z,4.43
2022-07-30T18:41:18.751Z,5.78
2022-07-30T18:43:48.312Z,4.85
2022-07-30T18:46:15.576Z,7.60
2022-07-30T18:48:42.264Z,5.68
2022-07-30T18:51:13.418Z,6.32
2022-07-30T18:53:41.501Z,9.07
2022-07-30T18:56:08.070Z,5.00
2022-07-30T18:58:34.669Z,4.85
2022-07-30T19:01:01.254Z,4.80
2022-07-30T19:03:27.780Z,6.25
2022-07-30T19:05:57.169Z,5.72
2022-07-30T19:08:23.659Z,5.78
2022-07-30T19:10:50.398Z,5.07
2022-07-30T19:13:16.984Z,4.25
2022-07-30T19:15:43.479Z,4.75
2022-07-30T19:18:10.477Z,6.03
2022-07-30T19:20:37.306Z,5.65
2022-07-30T19:23:05.546Z,4.68
2022-07-30T19:25:34.371Z,5.28
2022-07-30T19:28:02.051Z,6.15
2022-07-30T19:30:29.596Z,5.28
2022-07-30T19:33:02.970Z,4.57
2022-07-30T19:35:29.828Z,5.20
2022-07-30T19:37:56.364Z,5.15
2022-07-30T19:40:22.944Z,5.95
2022-07-30T19:42:55.713Z,5.45
2022-07-30T19:45:22.649Z,6.47
2022-07-30T19:47:49.147Z,8.65
2022-07-30T19:50:15.875Z,5.50
2022-07-30T19:52:51.259Z,5.22
2022-07-30T19:55:35.051Z,5.95
2022-07-30T19:58:15.884Z,5.97
2022-07-30T20:00:49.392Z,5.60
2022-07-30T20:03:25.343Z,5.32
2022-07-30T20:05:54.991Z,7.60
2022-07-30T20:08:25.548Z,5.07
2022-07-30T20:10:52.493Z,5.40
2022-07-30T20:13:19.076Z,6.30
2022-07-30T20:15:46.418Z,6.38
2022-07-30T20:18:13.051Z,5.78
2022-07-30T20:20:41.270Z,5.22
2022-07-30T20:23:08.252Z,4.93
2022-07-30T20:25:37.070Z,6.50
2022-07-30T20:28:05.268Z,5.28
2022-07-30T20:30:32.630Z,6.10
2022-07-30T20:32:59.326Z,6.95
2022-07-30T20:35:29.265Z,7.72
2022-07-30T20:37:56.739Z,6.68
2022-07-30T20:40:26.731Z,8.18
2022-07-30T20:42:54.341Z,6.63
2022-07-30T20:45:21.297Z,5.25
2022-07-30T20:47:52.771Z,6.60
2022-07-30T20:50:19.332Z,6.53
2022-07-30T20:52:57.637Z,6.43
2022-07-30T20:55:24.150Z,8.02
2022-07-30T20:57:59.290Z,5.40
2022-07-30T21:00:36.660Z,7.57
2022-07-30T21:03:05.376Z,6.35
2022-07-30T21:05:31.879Z,8.38
2022-07-30T21:07:58.711Z,10.02
2022-07-30T21:10:25.557Z,7.20
2022-07-30T21:12:53.297Z,7.68
2022-07-30T21:15:25.426Z,8.52
2022-07-30T21:17:53.400Z,8.98
2022-07-30T21:20:27.464Z,10.20
2022-07-30T21:22:55.244Z,10.15
2022-07-30T21:25:23.590Z,11.05
2022-07-30T21:28:00.618Z,8.85
2022-07-30T21:30:29.708Z,8.95
2022-07-30T21:32:56.518Z,7.40
2022-07-30T21:35:23.060Z,8.05
2022-07-30T21:37:49.602Z,9.50
2022-07-30T21:40:16.210Z,9.88
2022-07-30T21:42:48.761Z,10.25
2022-07-30T21:45:15.680Z,8.38
2022-07-30T21:47:47.993Z,7.80
2022-07-30T21:50:16.066Z,7.78
2022-07-30T21:52:43.245Z,8.13
2022-07-30T21:55:13.560Z,7.38
2022-07-30T21:57:40.693Z,9.23
2022-07-30T22:00:21.773Z,7.85
2022-07-30T22:02:52.893Z,8.10
2022-07-30T22:05:21.705Z,7.50
2022-07-30T22:07:50.160Z,6.90
2022-07-30T22:10:21.495Z,8.35
2022-07-30T22:12:48.550Z,8.65
2022-07-30T22:15:15.340Z,7.22
2022-07-30T22:17:58.671Z,8.27
2022-07-30T22:20:30.549Z,8.77
2022-07-30T22:22:58.880Z,6.93
2022-07-30T22:25:43.695Z,8.55
2022-07-30T22:28:10.753Z,6.80
2022-07-30T22:30:38.037Z,6.95
2022-07-30T22:33:16.069Z,9.02
2022-07-30T22:35:46.596Z,6.82
2022-07-30T22:38:13.965Z,7.30
2022-07-30T22:40:41.952Z,7.70
2022-07-30T22:43:12.474Z,10.52
2022-07-30T22:45:47.688Z,8.38
2022-07-30T22:48:19.117Z,6.95
2022-07-30T22:50:52.868Z,9.10
2022-07-30T22:54:11.774Z,8.68
2022-07-30T22:56:07.209Z,8.18
2022-07-30T22:58:40.844Z,7.50
2022-07-30T23:01:09.285Z,7.40
2022-07-30T23:03:37.642Z,7.15
2022-07-30T23:06:04.143Z,9.48
2022-07-30T23:08:33.072Z,7.53
2022-07-30T23:11:00.026Z,8.98
2022-07-30T23:13:27.785Z,8.00
2022-07-30T23:15:54.471Z,6.82
2022-07-30T23:18:20.994Z,11.18
2022-07-30T23:20:47.508Z,7.47
2022-07-30T23:23:14.107Z,10.30
2022-07-30T23:25:40.639Z,11.40
2022-07-30T23:28:07.131Z,9.80
2022-07-30T23:30:34.486Z,8.02
2022-07-30T23:33:01.585Z,9.25
2022-07-30T23:35:28.116Z,8.30
2022-07-30T23:37:54.670Z,8.90
2022-07-30T23:40:21.162Z,8.27
2022-07-30T23:42:49.990Z,10.02
2022-07-30T23:45:17.408Z,10.05
2022-07-30T23:48:02.139Z,8.88
2022-07-30T23:50:32.912Z,8.82
2022-07-30T23:53:00.546Z,8.68
2022-07-30T23:55:27.390Z,8.15
2022-07-30T23:57:54.373Z,8.18
